Pine Galaxy — C6TT5 — position and weather

sailwx.info

Track history (hours):
 
Tides and Currents Weather Stations Pressure Air Temp Water Temp Dewpoint Dewpoint Depression Visibility Wind Speed Wind Dir Waves Ship Positions

Pine Galaxy

Last reported at 2017-Feb-19 12:28 UTC. Time now 2017-Feb-26 21:52 UTC.
Position N 31°02' E 122°15'.

Length 148 m; draft 5.5 m.

Type: Tanker. MMSI: 311772000.

Date/timePositionNaut miles runAvg speedWind from/ knotsBaromVisibWave heightAir tempDewpointWater temp
2017-Feb-19 12:28N 31°02' E 122°15'1212.6
2017-Feb-19 11:33N 31°05' E 122°02'1212.3
2017-Feb-19 10:33N 31°11' E 121°50'1211.6
2017-Feb-19 09:33N 31°20' E 121°41'1010.5
2017-Feb-19 08:33N 31°25' E 121°30'1110.5
2017-Feb-19 07:33N 31°32' E 121°21'1313.4
2017-Feb-19 06:33N 31°41' E 121°10'1111.3
2017-Feb-19 05:33N 31°47' E 120°58'2310.2
2017-Feb-19 03:16N 32°00' E 120°35'710.1
2017-Feb-19 02:33N 32°01' E 120°27'2 2.0
2017-Feb-19 01:28N 31°59' E 120°27'0 0.0
2017-Feb-19 00:28N 31°59' E 120°27'0 0.0
2017-Feb-18 23:31N 31°59' E 120°27'0 0.0
2017-Feb-18 22:16N 31°59' E 120°27'0 0.0
2017-Feb-18 21:31N 31°59' E 120°27'0 0.0
2017-Feb-18 20:31N 31°59' E 120°27'0 0.0
2017-Feb-18 19:31N 31°59' E 120°27'0 0.0
2017-Feb-18 18:28N 31°59' E 120°27'0 0.0
2017-Feb-18 17:31N 31°59' E 120°27'0 0.0
2017-Feb-18 16:31N 31°59' E 120°27'0 0.0
2017-Feb-18 15:28N 31°59' E 120°27'0 0.0
2017-Feb-18 02:16N 31°59' E 120°27'0 0.0
2017-Feb-17 22:19N 31°59' E 120°27'0 0.0
2017-Feb-17 21:28N 31°59' E 120°27'0 0.0
2017-Feb-17 20:10N 31°59' E 120°27'0 0.0
2017-Feb-17 19:31N 31°59' E 120°27'0 0.0
2017-Feb-17 18:28N 31°59' E 120°27'0 0.0
2017-Feb-17 17:10N 31°59' E 120°27'0 0.0
2017-Feb-17 16:28N 31°59' E 120°27'0 0.0
2017-Feb-17 15:28N 31°59' E 120°27'0 0.0
2017-Feb-17 14:31N 31°59' E 120°27'0 0.0
2017-Feb-17 13:22N 31°59' E 120°27'0 0.0
2017-Feb-17 12:10N 31°59' E 120°27'0 0.0
2017-Feb-17 11:31N 31°59' E 120°27'0 0.0
2017-Feb-17 10:28N 31°59' E 120°27'0 0.0
2017-Feb-17 09:19N 31°59' E 120°27'0 0.0
2017-Feb-17 06:31N 31°59' E 120°27'0 0.0
2017-Feb-17 05:28N 31°59' E 120°27'0 0.0
2017-Feb-17 04:31N 31°59' E 120°27'0 0.0
2017-Feb-17 03:28N 31°59' E 120°27'0 0.0
2017-Feb-17 02:34N 31°59' E 120°27'6 5.6
2017-Feb-17 01:33N 32°01' E 120°33'1 0.7
2017-Feb-17 00:15N 32°01' E 120°34'0 0.0
2017-Feb-16 23:27N 32°01' E 120°34'0 0.0
2017-Feb-16 22:33N 32°01' E 120°34'0 0.1
2017-Feb-16 20:33N 32°01' E 120°34'0 0.0
2017-Feb-16 19:24N 32°01' E 120°34'0 0.0
2017-Feb-16 18:33N 32°01' E 120°34'0 0.0
2017-Feb-16 17:33N 32°01' E 120°34'0 0.0
2017-Feb-16 16:33N 32°01' E 120°34'0 0.0
2017-Feb-16 15:21N 32°01' E 120°34'0 0.0
2017-Feb-16 14:33N 32°01' E 120°34'0 0.0
2017-Feb-16 13:33N 32°01' E 120°34'0 0.1
2017-Feb-16 12:33N 32°01' E 120°34'0 0.1
2017-Feb-16 11:33N 32°01' E 120°34'0 0.1
2017-Feb-16 10:33N 32°01' E 120°34'3110.4
2017-Feb-16 07:33N 31°45' E 121°05'1414.4
2017-Feb-16 06:33N 31°35' E 121°18'1312.8
2017-Feb-16 05:34N 31°27' E 121°29'1110.5
2017-Feb-16 04:33N 31°21' E 121°39'1111.1
2017-Feb-16 03:33N 31°16' E 121°51'9 8.7
2017-Feb-16 02:34N 31°15' E 122°01'8 8.1
2017-Feb-16 01:34N 31°11' E 122°10'8 8.2
2017-Feb-16 00:34N 31°07' E 122°18'18 1.4
2017-Feb-15 11:07N 31°12' E 122°38'0 0.0
2017-Feb-15 07:33N 31°12' E 122°38'  
Track history (hours):
 
Tides and Currents Weather Stations Pressure Air Temp Water Temp Dewpoint Dewpoint Depression Visibility Wind Speed Wind Dir Waves Ship Positions

Pine Galaxy

Last reported at 2017-Feb-19 12:28 UTC. Time now 2017-Feb-26 21:52 UTC.
Position N 31°02' E 122°15'.

Length 148 m; draft 5.5 m.

Type: Tanker. MMSI: 311772000.

Date/timePositionNaut miles runAvg speedWind from/ knotsBaromVisibWave heightAir tempDewpointWater temp
2017-Feb-19 12:28N 31°02' E 122°15'1212.6
2017-Feb-19 11:33N 31°05' E 122°02'1212.3
2017-Feb-19 10:33N 31°11' E 121°50'1211.6
2017-Feb-19 09:33N 31°20' E 121°41'1010.5
2017-Feb-19 08:33N 31°25' E 121°30'1110.5
2017-Feb-19 07:33N 31°32' E 121°21'1313.4
2017-Feb-19 06:33N 31°41' E 121°10'1111.3
2017-Feb-19 05:33N 31°47' E 120°58'2310.2
2017-Feb-19 03:16N 32°00' E 120°35'710.1
2017-Feb-19 02:33N 32°01' E 120°27'2 2.0
2017-Feb-19 01:28N 31°59' E 120°27'0 0.0
2017-Feb-19 00:28N 31°59' E 120°27'0 0.0
2017-Feb-18 23:31N 31°59' E 120°27'0 0.0
2017-Feb-18 22:16N 31°59' E 120°27'0 0.0
2017-Feb-18 21:31N 31°59' E 120°27'0 0.0
2017-Feb-18 20:31N 31°59' E 120°27'0 0.0
2017-Feb-18 19:31N 31°59' E 120°27'0 0.0
2017-Feb-18 18:28N 31°59' E 120°27'0 0.0
2017-Feb-18 17:31N 31°59' E 120°27'0 0.0
2017-Feb-18 16:31N 31°59' E 120°27'0 0.0
2017-Feb-18 15:28N 31°59' E 120°27'0 0.0
2017-Feb-18 02:16N 31°59' E 120°27'0 0.0
2017-Feb-17 22:19N 31°59' E 120°27'0 0.0
2017-Feb-17 21:28N 31°59' E 120°27'0 0.0
2017-Feb-17 20:10N 31°59' E 120°27'0 0.0
2017-Feb-17 19:31N 31°59' E 120°27'0 0.0
2017-Feb-17 18:28N 31°59' E 120°27'0 0.0
2017-Feb-17 17:10N 31°59' E 120°27'0 0.0
2017-Feb-17 16:28N 31°59' E 120°27'0 0.0
2017-Feb-17 15:28N 31°59' E 120°27'0 0.0
2017-Feb-17 14:31N 31°59' E 120°27'0 0.0
2017-Feb-17 13:22N 31°59' E 120°27'0 0.0
2017-Feb-17 12:10N 31°59' E 120°27'0 0.0
2017-Feb-17 11:31N 31°59' E 120°27'0 0.0
2017-Feb-17 10:28N 31°59' E 120°27'0 0.0
2017-Feb-17 09:19N 31°59' E 120°27'0 0.0
2017-Feb-17 06:31N 31°59' E 120°27'0 0.0
2017-Feb-17 05:28N 31°59' E 120°27'0 0.0
2017-Feb-17 04:31N 31°59' E 120°27'0 0.0
2017-Feb-17 03:28N 31°59' E 120°27'0 0.0
2017-Feb-17 02:34N 31°59' E 120°27'6 5.6
2017-Feb-17 01:33N 32°01' E 120°33'1 0.7
2017-Feb-17 00:15N 32°01' E 120°34'0 0.0
2017-Feb-16 23:27N 32°01' E 120°34'0 0.0
2017-Feb-16 22:33N 32°01' E 120°34'0 0.1
2017-Feb-16 20:33N 32°01' E 120°34'0 0.0
2017-Feb-16 19:24N 32°01' E 120°34'0 0.0
2017-Feb-16 18:33N 32°01' E 120°34'0 0.0
2017-Feb-16 17:33N 32°01' E 120°34'0 0.0
2017-Feb-16 16:33N 32°01' E 120°34'0 0.0
2017-Feb-16 15:21N 32°01' E 120°34'0 0.0
2017-Feb-16 14:33N 32°01' E 120°34'0 0.0
2017-Feb-16 13:33N 32°01' E 120°34'0 0.1
2017-Feb-16 12:33N 32°01' E 120°34'0 0.1
2017-Feb-16 11:33N 32°01' E 120°34'0 0.1
2017-Feb-16 10:33N 32°01' E 120°34'3110.4
2017-Feb-16 07:33N 31°45' E 121°05'1414.4
2017-Feb-16 06:33N 31°35' E 121°18'1312.8
2017-Feb-16 05:34N 31°27' E 121°29'1110.5
2017-Feb-16 04:33N 31°21' E 121°39'1111.1
2017-Feb-16 03:33N 31°16' E 121°51'9 8.7
2017-Feb-16 02:34N 31°15' E 122°01'8 8.1
2017-Feb-16 01:34N 31°11' E 122°10'8 8.2
2017-Feb-16 00:34N 31°07' E 122°18'18 1.4
2017-Feb-15 11:07N 31°12' E 122°38'0 0.0
2017-Feb-15 07:33N 31°12' E 122°38'  

Dump ship's entire track history